createdAt,value
2022-12-04T00:01:24.078Z,81.90
2022-12-04T00:03:53.973Z,72.63
2022-12-04T00:06:23.272Z,73.07
2022-12-04T00:08:52.329Z,71.57
2022-12-04T00:11:23.379Z,79.80
2022-12-04T00:13:51.513Z,64.90
2022-12-04T00:16:23.531Z,76.17
2022-12-04T00:18:52.127Z,69.07
2022-12-04T00:21:21.241Z,70.00
2022-12-04T00:23:49.700Z,69.70
2022-12-04T00:26:19.664Z,75.80
2022-12-04T00:28:48.093Z,70.97
2022-12-04T00:31:18.039Z,77.23
2022-12-04T00:33:47.943Z,75.90
2022-12-04T00:36:18.476Z,76.83
2022-12-04T00:38:47.154Z,69.30
2022-12-04T00:41:17.331Z,75.17
2022-12-04T00:43:45.957Z,78.07
2022-12-04T00:46:14.299Z,70.93
2022-12-04T00:48:43.223Z,71.00
2022-12-04T00:51:14.631Z,71.33
2022-12-04T00:53:42.995Z,74.70
2022-12-04T00:56:13.504Z,77.73
2022-12-04T00:58:41.801Z,77.47
2022-12-04T01:01:12.547Z,83.07
2022-12-04T01:03:41.188Z,75.87
2022-12-04T01:06:17.813Z,76.73
2022-12-04T01:08:47.191Z,77.13
2022-12-04T01:11:15.474Z,81.27
2022-12-04T01:13:43.436Z,99.33
2022-12-04T01:16:17.790Z,95.37
2022-12-04T01:18:47.192Z,92.90
2022-12-04T01:21:15.235Z,90.00
2022-12-04T01:23:44.094Z,88.10
2022-12-04T01:26:14.232Z,94.53
2022-12-04T01:28:42.819Z,94.23
2022-12-04T01:31:13.829Z,90.37
2022-12-04T01:33:43.217Z,92.40
2022-12-04T01:36:13.482Z,91.30
2022-12-04T01:38:41.849Z,85.20
2022-12-04T01:41:16.722Z,87.83
2022-12-04T01:43:46.043Z,84.10
2022-12-04T01:46:14.087Z,82.60
2022-12-04T01:48:46.168Z,85.63
2022-12-04T01:51:18.902Z,85.23
2022-12-04T01:53:52.836Z,85.63
2022-12-04T01:56:23.301Z,83.87
2022-12-04T01:58:56.124Z,83.00
2022-12-04T02:01:24.503Z,80.67
2022-12-04T02:03:52.529Z,82.93
2022-12-04T02:06:20.521Z,74.33
2022-12-04T02:08:48.557Z,73.37
2022-12-04T02:11:28.196Z,79.63
2022-12-04T02:14:04.933Z,74.20
2022-12-04T02:16:39.678Z,75.77
2022-12-04T02:19:21.714Z,73.83
2022-12-04T02:21:51.913Z,76.03
2022-12-04T02:24:46.788Z,78.27
2022-12-04T02:27:32.350Z,78.77
2022-12-04T02:30:05.762Z,78.33
2022-12-04T02:32:40.511Z,79.13
2022-12-04T02:35:14.395Z,76.93
2022-12-04T02:37:46.199Z,75.77
2022-12-04T02:40:22.126Z,78.23
2022-12-04T02:42:57.017Z,73.07
2022-12-04T02:45:31.342Z,70.30
2022-12-04T02:48:02.138Z,70.30
2022-12-04T02:50:34.295Z,72.27
2022-12-04T02:53:06.500Z,74.80
2022-12-04T02:55:39.938Z,68.77
2022-12-04T02:58:14.270Z,77.27
2022-12-04T03:00:46.432Z,70.67
2022-12-04T03:03:19.228Z,71.80
2022-12-04T03:05:56.391Z,73.80
2022-12-04T03:08:30.129Z,68.13
2022-12-04T03:11:01.378Z,68.77
2022-12-04T03:13:35.788Z,70.03
2022-12-04T03:16:09.659Z,68.20
2022-12-04T03:18:41.390Z,69.90
2022-12-04T03:21:13.087Z,70.30
2022-12-04T03:23:48.224Z,65.77
2022-12-04T03:26:26.231Z,65.00
2022-12-04T03:28:59.504Z,63.93
2022-12-04T03:31:38.714Z,65.73
2022-12-04T03:34:08.730Z,63.87
2022-12-04T03:36:40.876Z,61.80
2022-12-04T03:39:16.271Z,57.80
2022-12-04T03:41:54.896Z,59.87
2022-12-04T03:44:27.215Z,56.33
2022-12-04T03:47:00.409Z,59.80
2022-12-04T03:49:35.686Z,59.10
2022-12-04T03:52:09.358Z,54.07
2022-12-04T03:54:43.159Z,53.07
2022-12-04T03:57:15.955Z,58.87
2022-12-04T03:59:53.883Z,63.77
2022-12-04T04:02:28.292Z,59.70
2022-12-04T04:04:59.342Z,57.17
2022-12-04T04:07:35.863Z,64.60
2022-12-04T04:10:08.906Z,56.93
2022-12-04T04:12:42.466Z,59.97
2022-12-04T04:15:32.136Z,61.23
2022-12-04T04:18:20.919Z,64.90
2022-12-04T04:21:11.359Z,60.73
2022-12-04T04:24:01.575Z,61.37
2022-12-04T04:26:34.289Z,60.70
2022-12-04T04:29:02.287Z,58.63
2022-12-04T04:31:38.050Z,52.80
2022-12-04T04:34:15.717Z,51.53
2022-12-04T04:36:54.852Z,49.40
2022-12-04T04:39:31.200Z,51.00
2022-12-04T04:42:04.352Z,50.00
2022-12-04T04:44:42.273Z,53.03
2022-12-04T04:47:18.668Z,54.77
2022-12-04T04:49:49.892Z,49.53
2022-12-04T04:52:20.352Z,50.70
2022-12-04T04:54:48.788Z,48.83
2022-12-04T04:57:27.697Z,49.23
2022-12-04T04:59:55.900Z,51.60
2022-12-04T05:02:25.672Z,50.30
2022-12-04T05:04:55.867Z,53.27
2022-12-04T05:07:23.833Z,52.33
2022-12-04T05:09:51.822Z,52.10
2022-12-04T05:12:19.996Z,54.77
2022-12-04T05:14:48.535Z,52.87
2022-12-04T05:17:16.918Z,52.30
2022-12-04T05:19:57.712Z,53.33
2022-12-04T05:22:30.211Z,51.10
2022-12-04T05:24:58.575Z,55.17
2022-12-04T05:27:28.361Z,51.70
2022-12-04T05:29:57.476Z,53.30
2022-12-04T05:32:27.722Z,53.83
2022-12-04T05:34:57.127Z,53.60
2022-12-04T05:37:26.886Z,52.57
2022-12-04T05:39:55.114Z,57.80
2022-12-04T05:42:23.724Z,53.67
2022-12-04T05:44:51.716Z,55.57
2022-12-04T05:47:19.674Z,60.33
2022-12-04T05:49:47.679Z,57.53
2022-12-04T05:52:15.719Z,59.40
2022-12-04T05:54:45.125Z,56.87
2022-12-04T05:57:13.081Z,56.47
2022-12-04T05:59:41.056Z,54.90
2022-12-04T06:02:09.111Z,61.37
2022-12-04T06:04:38.370Z,60.30
2022-12-04T06:07:06.891Z,61.87
2022-12-04T06:09:34.927Z,60.60
2022-12-04T06:12:04.805Z,65.43
2022-12-04T06:14:39.051Z,57.40
2022-12-04T06:17:07.578Z,57.10
2022-12-04T06:19:35.605Z,56.47
2022-12-04T06:22:03.709Z,62.27
2022-12-04T06:24:31.915Z,58.50
2022-12-04T06:29:50.396Z,58.93
2022-12-04T06:32:21.789Z,54.67
2022-12-04T06:34:52.651Z,56.53
2022-12-04T06:37:21.469Z,56.40
2022-12-04T06:39:49.478Z,54.27
2022-12-04T06:42:18.010Z,50.30
2022-12-04T06:44:46.083Z,52.23
2022-12-04T06:47:15.382Z,54.73
2022-12-04T06:49:43.337Z,56.30
2022-12-04T06:52:11.331Z,53.53
2022-12-04T06:54:39.280Z,50.63
2022-12-04T06:57:07.259Z,56.30
2022-12-04T06:59:35.246Z,52.57
2022-12-04T07:02:03.300Z,50.33
2022-12-04T07:04:32.687Z,52.83
2022-12-04T07:07:00.676Z,53.70
2022-12-04T07:09:28.612Z,51.70
2022-12-04T07:11:56.603Z,57.50
2022-12-04T07:14:24.617Z,59.60
2022-12-04T07:16:52.762Z,51.07
2022-12-04T07:19:20.772Z,55.20
2022-12-04T07:21:50.114Z,53.10
2022-12-04T07:24:18.754Z,58.27
2022-12-04T07:26:46.961Z,53.70
2022-12-04T07:29:15.030Z,54.57
2022-12-04T07:31:44.403Z,55.57
2022-12-04T07:34:12.612Z,56.17
2022-12-04T07:36:40.994Z,56.03
2022-12-04T07:39:10.400Z,59.07
2022-12-04T07:41:38.389Z,54.83
2022-12-04T07:44:06.487Z,55.23
2022-12-04T07:46:34.523Z,59.87
2022-12-04T07:49:02.717Z,54.07
2022-12-04T07:51:31.172Z,54.57
2022-12-04T07:54:03.126Z,67.77
2022-12-04T07:56:33.500Z,58.93
2022-12-04T07:59:01.745Z,61.80
2022-12-04T08:01:30.223Z,64.13
2022-12-04T08:04:00.649Z,67.47
2022-12-04T08:06:29.891Z,69.37
2022-12-04T08:08:58.417Z,68.33
2022-12-04T08:11:28.051Z,70.53
2022-12-04T08:13:57.955Z,64.07
2022-12-04T08:16:27.049Z,64.30
2022-12-04T08:18:55.922Z,58.77
2022-12-04T08:21:25.658Z,59.10
2022-12-04T08:23:55.256Z,60.03
2022-12-04T08:26:25.540Z,53.70
2022-12-04T08:28:55.185Z,52.00
2022-12-04T08:31:26.037Z,56.40
2022-12-04T08:33:56.932Z,52.53
2022-12-04T08:36:25.255Z,48.10
2022-12-04T08:38:53.406Z,51.40
2022-12-04T08:41:24.183Z,47.30
2022-12-04T08:43:54.701Z,48.40
2022-12-04T08:46:25.055Z,55.67
2022-12-04T08:48:53.245Z,53.37
2022-12-04T08:51:23.006Z,57.30
2022-12-04T08:53:54.744Z,59.27
2022-12-04T08:56:22.725Z,56.90
2022-12-04T08:58:50.925Z,62.07
2022-12-04T09:01:19.282Z,55.03
2022-12-04T09:03:48.686Z,52.63
2022-12-04T09:06:17.452Z,43.57
2022-12-04T09:08:45.679Z,40.17
2022-12-04T09:11:15.441Z,46.67
2022-12-04T09:13:44.685Z,48.60
2022-12-04T09:16:18.442Z,45.83
2022-12-04T09:18:48.161Z,45.30
2022-12-04T09:21:18.107Z,41.17
2022-12-04T09:23:46.596Z,42.00
2022-12-04T09:26:21.637Z,44.77
2022-12-04T09:28:50.575Z,42.93
2022-12-04T09:31:19.573Z,38.53
2022-12-04T09:33:49.044Z,38.77
2022-12-04T09:36:17.645Z,39.17
2022-12-04T09:38:47.706Z,38.70
2022-12-04T09:41:40.070Z,38.53
2022-12-04T09:44:14.922Z,36.60
2022-12-04T09:46:50.947Z,39.60
2022-12-04T09:49:25.042Z,46.07
2022-12-04T09:51:58.056Z,48.67
2022-12-04T09:54:30.833Z,41.10
2022-12-04T09:57:02.414Z,49.07
2022-12-04T09:59:33.258Z,45.37
2022-12-04T10:02:05.028Z,50.83
2022-12-04T10:04:34.443Z,46.20
2022-12-04T10:07:08.683Z,42.20
2022-12-04T10:09:43.621Z,42.43
2022-12-04T10:12:21.347Z,42.73
2022-12-04T10:15:05.102Z,39.03
2022-12-04T10:18:02.538Z,40.17
2022-12-04T10:20:49.902Z,45.27
2022-12-04T10:23:29.849Z,49.13
2022-12-04T10:25:58.686Z,48.10
2022-12-04T10:28:30.770Z,47.33
2022-12-04T10:31:02.168Z,45.13
2022-12-04T10:33:36.876Z,48.70
2022-12-04T10:36:07.143Z,47.37
2022-12-04T10:38:41.515Z,47.90
2022-12-04T10:41:16.891Z,40.13
2022-12-04T10:43:47.183Z,43.43
2022-12-04T10:46:19.511Z,44.33
2022-12-04T10:48:50.249Z,45.07
2022-12-04T10:51:22.783Z,43.93
2022-12-04T10:53:51.916Z,41.63
2022-12-04T10:56:21.888Z,42.87
2022-12-04T10:59:00.653Z,42.60
2022-12-04T11:01:30.753Z,47.70
2022-12-04T11:04:03.798Z,42.07
2022-12-04T11:06:33.524Z,46.37
2022-12-04T11:09:02.711Z,43.33
2022-12-04T11:11:33.050Z,46.20
2022-12-04T11:14:05.908Z,43.77
2022-12-04T11:16:37.604Z,42.77
2022-12-04T11:19:21.260Z,45.17
2022-12-04T11:21:51.604Z,46.27
2022-12-04T11:24:24.065Z,46.13
2022-12-04T11:26:53.204Z,47.37
2022-12-04T11:29:27.191Z,45.07
2022-12-04T11:31:59.345Z,46.57
2022-12-04T11:34:36.294Z,46.93
2022-12-04T11:37:07.460Z,52.07
2022-12-04T11:39:37.961Z,48.77
2022-12-04T11:42:16.556Z,52.27
2022-12-04T11:44:52.016Z,49.60
2022-12-04T11:47:22.099Z,46.63
2022-12-04T11:50:01.578Z,50.27
2022-12-04T11:52:47.697Z,48.83
2022-12-04T11:55:28.499Z,48.53
2022-12-04T11:58:12.307Z,49.83
2022-12-04T12:00:48.905Z,49.30
2022-12-04T12:03:21.327Z,42.57
2022-12-04T12:06:17.136Z,41.50
2022-12-04T12:08:58.547Z,42.67
2022-12-04T12:11:31.706Z,43.77
2022-12-04T12:14:08.621Z,43.97
2022-12-04T12:16:51.582Z,45.17
2022-12-04T12:19:52.233Z,46.13
2022-12-04T12:22:33.470Z,51.70
2022-12-04T12:25:07.770Z,46.13
2022-12-04T12:27:51.513Z,46.27
2022-12-04T12:30:22.507Z,44.97
2022-12-04T12:33:09.977Z,46.60
2022-12-04T12:35:46.106Z,45.00
2022-12-04T12:38:18.234Z,43.13
2022-12-04T12:40:52.077Z,43.73
2022-12-04T12:43:23.830Z,45.80
2022-12-04T12:45:56.386Z,45.80
2022-12-04T12:48:29.671Z,43.20
2022-12-04T12:51:28.701Z,47.07
2022-12-04T12:53:54.443Z,48.33
2022-12-04T12:56:32.231Z,48.43
2022-12-04T12:59:03.959Z,47.33
2022-12-04T13:01:44.598Z,47.43
2022-12-04T13:04:19.604Z,49.07
2022-12-04T13:06:53.997Z,50.00
2022-12-04T13:09:26.550Z,48.63
2022-12-04T13:12:15.753Z,53.07
2022-12-04T13:14:48.787Z,50.77
2022-12-04T13:17:21.883Z,48.10
2022-12-04T13:19:54.647Z,53.87
2022-12-04T13:22:31.068Z,52.90
2022-12-04T13:25:13.041Z,50.70
2022-12-04T13:27:53.673Z,50.53
2022-12-04T13:30:23.953Z,53.90
2022-12-04T13:33:34.095Z,49.33
2022-12-04T13:36:16.595Z,49.53
2022-12-04T13:39:01.333Z,50.30
2022-12-04T13:41:30.114Z,51.37
2022-12-04T13:44:05.666Z,50.83
2022-12-04T13:46:37.427Z,48.83
2022-12-04T13:49:10.273Z,48.23
2022-12-04T13:51:40.524Z,47.10
2022-12-04T13:54:32.621Z,45.20
2022-12-04T13:57:19.827Z,50.27
2022-12-04T13:59:50.059Z,46.27
2022-12-04T14:02:29.842Z,46.97
2022-12-04T14:05:00.919Z,49.23
2022-12-04T14:07:31.864Z,49.87
2022-12-04T14:10:04.696Z,56.50
2022-12-04T14:12:36.117Z,55.93
2022-12-04T14:15:08.170Z,62.63
2022-12-04T14:17:38.430Z,62.27
2022-12-04T14:20:10.247Z,61.93
2022-12-04T14:22:43.681Z,59.63
2022-12-04T14:25:35.300Z,64.30
2022-12-04T14:28:15.019Z,61.10
2022-12-04T14:30:45.759Z,62.33
2022-12-04T14:33:20.973Z,64.60
2022-12-04T14:35:54.069Z,59.13
2022-12-04T14:38:23.962Z,62.23
2022-12-04T14:40:56.193Z,61.53
2022-12-04T14:43:26.873Z,60.10
2022-12-04T14:46:01.414Z,64.30
2022-12-04T14:48:39.461Z,61.17
2022-12-04T14:51:15.883Z,62.03
2022-12-04T14:53:49.947Z,65.57
2022-12-04T14:56:36.094Z,64.17
2022-12-04T14:59:08.288Z,64.67
2022-12-04T15:01:38.816Z,63.90
2022-12-04T15:04:16.027Z,62.70
2022-12-04T15:06:48.122Z,71.63
2022-12-04T15:09:37.673Z,61.63
2022-12-04T15:12:36.513Z,60.30
2022-12-04T15:15:14.652Z,61.23
2022-12-04T15:17:44.094Z,61.10
2022-12-04T15:20:17.405Z,63.97
2022-12-04T15:22:46.055Z,66.37
2022-12-04T15:25:20.693Z,62.70
2022-12-04T15:27:50.682Z,64.37
2022-12-04T15:30:22.111Z,61.10
2022-12-04T15:32:53.874Z,62.53
2022-12-04T15:35:25.748Z,63.73
2022-12-04T15:37:54.771Z,64.87
2022-12-04T15:40:26.298Z,69.93
2022-12-04T15:42:55.053Z,71.63
2022-12-04T15:45:34.822Z,63.10
2022-12-04T15:48:04.279Z,68.27
2022-12-04T15:50:32.511Z,65.27
2022-12-04T15:53:03.855Z,67.70
2022-12-04T15:55:34.066Z,64.70
2022-12-04T15:58:05.598Z,63.00
2022-12-04T16:00:37.364Z,72.87
2022-12-04T16:03:20.775Z,64.90
2022-12-04T16:05:49.239Z,66.27
2022-12-04T16:08:25.054Z,67.67
2022-12-04T16:11:01.839Z,70.80
2022-12-04T16:13:32.918Z,70.70
2022-12-04T16:16:01.772Z,69.30
2022-12-04T16:18:31.184Z,63.27
2022-12-04T16:20:59.241Z,71.73
2022-12-04T16:23:27.870Z,70.50
2022-12-04T16:25:55.940Z,63.50
2022-12-04T16:28:23.966Z,73.40
2022-12-04T16:30:53.314Z,67.13
2022-12-04T16:33:21.326Z,66.57
2022-12-04T16:35:50.650Z,65.47
2022-12-04T16:38:18.921Z,65.10
2022-12-04T16:40:48.510Z,64.10
2022-12-04T16:43:18.121Z,64.40
2022-12-04T16:45:48.603Z,59.30
2022-12-04T16:48:16.611Z,65.30
2022-12-04T16:50:45.181Z,63.23
2022-12-04T16:53:17.805Z,68.10
2022-12-04T16:55:46.694Z,70.53
2022-12-04T16:58:15.231Z,68.47
2022-12-04T17:00:44.826Z,66.70
2022-12-04T17:03:18.980Z,70.17
2022-12-04T17:05:47.041Z,66.77
2022-12-04T17:08:16.471Z,70.33
2022-12-04T17:10:44.432Z,62.17
2022-12-04T17:13:12.458Z,64.37
2022-12-04T17:15:40.464Z,68.30
2022-12-04T17:18:12.936Z,68.40
2022-12-04T17:20:44.267Z,67.83
2022-12-04T17:23:13.569Z,67.37
2022-12-04T17:25:42.895Z,65.93
2022-12-04T17:28:11.814Z,63.40
2022-12-04T17:30:39.843Z,70.93
2022-12-04T17:33:07.827Z,66.00
2022-12-04T17:35:35.836Z,86.93
2022-12-04T17:38:06.113Z,77.80
2022-12-04T17:40:34.629Z,70.33
2022-12-04T17:43:04.176Z,74.47
2022-12-04T17:45:32.245Z,72.90
2022-12-04T17:48:01.364Z,88.33
2022-12-04T17:50:29.362Z,89.13
2022-12-04T17:52:57.321Z,71.53
2022-12-04T17:55:25.308Z,70.40
2022-12-04T17:57:53.253Z,67.77
2022-12-04T18:00:23.609Z,64.23
2022-12-04T18:02:53.289Z,65.07
2022-12-04T18:05:21.781Z,68.63
2022-12-04T18:07:49.922Z,66.73
2022-12-04T18:10:18.160Z,62.43
2022-12-04T18:12:46.125Z,64.03
2022-12-04T18:15:14.079Z,98.40
2022-12-04T18:17:43.426Z,69.50
2022-12-04T18:20:11.853Z,61.23
2022-12-04T18:22:39.797Z,56.10
2022-12-04T18:25:09.067Z,53.60
2022-12-04T18:27:41.678Z,54.30
2022-12-04T18:30:11.942Z,51.00
2022-12-04T18:32:39.938Z,52.70
2022-12-04T18:35:10.019Z,58.03
2022-12-04T18:37:37.970Z,55.13
2022-12-04T18:40:07.446Z,54.50
2022-12-04T18:42:35.713Z,56.40
2022-12-04T18:45:03.740Z,53.63
2022-12-04T18:47:31.700Z,55.10
2022-12-04T18:50:00.369Z,52.47
2022-12-04T18:52:29.905Z,50.30
2022-12-04T18:54:57.849Z,59.57
2022-12-04T18:57:25.806Z,80.50
2022-12-04T18:59:53.861Z,62.63
2022-12-04T19:02:22.064Z,65.27
2022-12-04T19:04:50.046Z,61.70
2022-12-04T19:07:18.733Z,55.17
2022-12-04T19:10:10.492Z,55.20
2022-12-04T19:12:36.002Z,55.17
2022-12-04T19:15:04.048Z,60.63
2022-12-04T19:17:32.053Z,62.33
2022-12-04T19:20:00.183Z,59.10
2022-12-04T19:22:28.173Z,61.07
2022-12-04T19:24:57.500Z,59.40
2022-12-04T19:27:27.558Z,57.77
2022-12-04T19:29:55.849Z,57.10
2022-12-04T19:32:24.624Z,63.07
2022-12-04T19:34:52.993Z,57.87
2022-12-04T19:37:20.950Z,62.00
2022-12-04T19:39:48.883Z,65.30
2022-12-04T19:42:18.246Z,66.20
2022-12-04T19:44:48.727Z,66.47
2022-12-04T19:47:17.303Z,70.13
2022-12-04T19:49:45.281Z,72.30
2022-12-04T19:52:13.247Z,65.17
2022-12-04T19:54:41.315Z,66.87
2022-12-04T19:57:09.328Z,68.03
2022-12-04T19:59:43.115Z,72.07
2022-12-04T20:02:14.241Z,65.43
2022-12-04T20:04:43.181Z,67.60
2022-12-04T20:07:11.328Z,72.03
2022-12-04T20:09:39.332Z,69.60
2022-12-04T20:12:07.751Z,64.97
2022-12-04T20:14:35.716Z,65.53
2022-12-04T20:17:05.268Z,69.17
2022-12-04T20:19:33.429Z,64.63
2022-12-04T20:22:01.391Z,63.30
2022-12-04T20:24:29.375Z,65.03
2022-12-04T20:26:57.628Z,67.87
2022-12-04T20:29:25.634Z,60.30
2022-12-04T20:31:53.609Z,61.50
2022-12-04T20:34:22.951Z,66.60
2022-12-04T20:36:50.945Z,61.40
2022-12-04T20:39:19.848Z,59.97
2022-12-04T20:41:48.444Z,64.93
2022-12-04T20:44:18.549Z,66.50
2022-12-04T20:46:46.654Z,57.67
2022-12-04T20:49:21.762Z,64.13
2022-12-04T20:51:52.989Z,62.37
2022-12-04T20:54:22.438Z,64.67
2022-12-04T20:56:52.922Z,60.27
2022-12-04T20:59:22.834Z,67.83
2022-12-04T21:01:51.492Z,62.13
2022-12-04T21:04:19.667Z,61.33
2022-12-04T21:06:48.053Z,58.27
2022-12-04T21:09:20.987Z,57.93
2022-12-04T21:11:50.650Z,58.00
2022-12-04T21:14:38.155Z,53.40
2022-12-04T21:17:09.286Z,61.57
2022-12-04T21:19:37.361Z,55.03
2022-12-04T21:22:05.866Z,57.17
2022-12-04T21:24:38.680Z,53.63
2022-12-04T21:27:07.845Z,57.77
2022-12-04T21:29:36.392Z,53.73
2022-12-04T21:32:04.367Z,53.93
2022-12-04T21:34:32.727Z,55.63
2022-12-04T21:37:00.876Z,55.20
2022-12-04T21:39:28.969Z,52.97
2022-12-04T21:42:15.898Z,54.83
2022-12-04T21:44:43.890Z,57.63
2022-12-04T21:47:11.861Z,52.83
2022-12-04T21:49:39.970Z,57.77
2022-12-04T21:52:07.945Z,55.83
2022-12-04T21:54:35.978Z,57.27
2022-12-04T21:57:05.294Z,52.97
2022-12-04T21:59:33.291Z,57.53
2022-12-04T22:02:01.409Z,55.37
2022-12-04T22:04:29.595Z,54.80
2022-12-04T22:06:57.543Z,59.50
2022-12-04T22:09:26.129Z,53.80
2022-12-04T22:11:54.109Z,52.77
2022-12-04T22:14:23.494Z,52.67
2022-12-04T22:16:52.313Z,52.23
2022-12-04T22:19:20.325Z,52.63
2022-12-04T22:21:48.565Z,58.33
2022-12-04T22:24:16.550Z,52.47
2022-12-04T22:26:44.544Z,54.07
2022-12-04T22:29:41.885Z,56.60
2022-12-04T22:32:01.788Z,52.80
2022-12-04T22:34:29.808Z,48.60
2022-12-04T22:36:57.758Z,52.40
2022-12-04T22:39:25.804Z,45.30
2022-12-04T22:41:53.841Z,45.13
2022-12-04T22:44:21.947Z,45.80
2022-12-04T22:46:49.995Z,45.80
2022-12-04T22:49:19.507Z,48.70
2022-12-04T22:51:47.443Z,43.40
2022-12-04T22:54:15.840Z,43.77
2022-12-04T22:56:44.362Z,49.17
2022-12-04T22:59:12.566Z,50.40
2022-12-04T23:01:40.554Z,48.47
2022-12-04T23:04:08.538Z,49.47
2022-12-04T23:06:38.295Z,49.63
2022-12-04T23:09:08.318Z,49.70
2022-12-04T23:11:37.413Z,48.63
2022-12-04T23:14:08.013Z,55.80
2022-12-04T23:16:37.440Z,46.97
2022-12-04T23:19:06.509Z,49.10
2022-12-04T23:21:35.110Z,49.17
2022-12-04T23:24:05.046Z,50.40
2022-12-04T23:26:35.035Z,59.87
2022-12-04T23:29:03.397Z,60.37
2022-12-04T23:31:33.432Z,51.47
2022-12-04T23:34:01.860Z,55.40
2022-12-04T23:36:30.049Z,61.00
2022-12-04T23:38:58.017Z,53.97
2022-12-04T23:41:28.843Z,58.40
2022-12-04T23:43:57.676Z,61.47
2022-12-04T23:46:29.040Z,59.67
2022-12-04T23:48:57.118Z,51.07
2022-12-04T23:51:25.350Z,57.90
2022-12-04T23:53:53.643Z,55.00
2022-12-04T23:56:23.827Z,48.47
2022-12-04T23:58:54.938Z,49.13
